Airfield :
LOGIN :

Register | Disclaimer

   EN    FR    IT 

 










Legend :    VFR   Marginal VFR   IFR   Intensive IFR   Very Intensive IFR
Visi :
Ceiling :
>= 8 km
>= 3000ft
5 to 8 km
1000 to 3000 ft
1500m to 5 km
500 to 1000 ft
800 to 1500m
200 to 500 ft
< 800m
< 200 ft
Symbols :   Thunderstorms  Fog  Heavy snow  Heavy precipitations  Wind > 20 kt
SIGMETs :     Misc.  Thunderstorms  Icing  Turbulence  Mountain Waves  Volcanic Ashes







- Airport Elevation : 286 ft
- IATA code : FFD


EGVA - RAF Fairford

CURRENT METAR :
  • 221036Z AUTO 20004KT 9999 -RA FEW029 SCT043 11/09 A3009 RMK AO2 DZE03RAB03 SLP194 $

EXPIRED METARs :
  • 220956Z AUTO 24006KT 9000 -DZ FEW034 OVC044 11/09 A3010 RMK AO2 DZB16E19RAB19E55DZB55 SLP197 P0000 T01090086 $
  • 220936Z AUTO 25008KT 6000 -RA BKN039 OVC055 11/08 A3010 RMK AO2 DZB16E19RAB19 SLP197 $
  • 220931Z AUTO 24009KT 9000 -RA SCT037 OVC055 11/08 A3009 RMK AO2 DZB16E19RAB19 SLP194 $
  • 220916Z AUTO 25009KT 9999 -DZ FEW040 BKN055 11/08 A3009 RMK AO2 DZB16 SLP194 $
  • 220856Z AUTO 27008KT 9999 CLR 11/08 A3009 RMK AO2 SLP194 60000 T01130078 53004 $
  • 220756Z AUTO 23007KT 9999 CLR 11/09 A3007 RMK AO2 SLP187 T01110088 $

Expired Forecast.
No reported NOTAMs for that airfield.
1 SIGMET reported for the London FIR (EGTT) :
 
Severe icing
EGTT SIGMET 05 VALID 221000/221400 EGRR
EGTT LONDON FIR SEV ICE FCST WI N5013 W00212 - N5140 W00530 - N5229 W00432 - N5050 W00005 - N5013 W00212 FL060/150 MOV E 25KT NC=



MET'MAP, your aeronautical weather chart ! - Copyright ORBIFLY December 2007 - Disclaimer

ORBIFLY MET'MAP TEAM :

Programming & Development : Alexandra Zaïnal
Concept & Development : Baudouin d'Aumeries
Co-Development & Prog : Marc-Olivier Méhu
Technical & hardware support : Manuel Goepfert

Contact : metmap@orbifly.com




SOURCES & CREDITS :

   NOAA